aviador You're here:

KOTG Decoded Metar

WORTHINGTON in MN, USA
Report Time2018-01-17 04:56:00
UTC Time2018-01-17 05:03:44
Flight Rules vfr VFR
Wind220° at 13 kt
W.Decomp.*RWY 18: 10.2 kt HW 8.0 kt RCW
RWY 29: 4.0 kt HW 12.4 kt LCW
W.Rank220° ranks 19
Current wind is above 220° avg. (10.0)
Visibility9999 m
Phenomena:N/A
Clouds:N/A
Expected CloudBase > 800 ft AGL from Temp-Dew spread
CeilingNone
Temp-17°C (ISA -29)
Dew Point-19°C (85% RH)
AAT-25.2°C
QNH1033 hPa
Density Alt-2,743 ft
Elevation1,575 ft
Report Wrong Elevation
Raw Report
METAR KOTG 170456Z AUTO 22013KT 10SM CLR M17/M19 A3049 RMK AO2 SLP372
T11721194 FZRANO=

Extra information for KOTG:More info

Metar Taf Metar & Taf Last 4 Metars F.Rules Stats Wind Profile Meteogram Temp Stats Airport Information Weather charts Add Link Nearby VenuesMetar ALERT Operation Metar Decoded Social comments

AIRNAV info for KOTG